createdAt,value
2022-08-03T00:00:31.914Z,89.59
2022-08-03T00:01:32.798Z,89.29
2022-08-03T00:02:33.714Z,89.50
2022-08-03T00:03:34.566Z,89.29
2022-08-03T00:04:35.447Z,89.59
2022-08-03T00:05:36.329Z,89.50
2022-08-03T00:06:37.455Z,90.00
2022-08-03T00:07:37.766Z,89.70
2022-08-03T00:08:40.373Z,89.90
2022-08-03T00:09:39.270Z,89.94
2022-08-03T00:10:40.152Z,90.66
2022-08-03T00:11:41.040Z,90.75
2022-08-03T00:12:41.909Z,91.26
2022-08-03T00:13:42.793Z,90.55
2022-08-03T00:14:43.674Z,90.96
2022-08-03T00:15:44.486Z,91.67
2022-08-03T00:16:45.370Z,91.56
2022-08-03T00:17:52.375Z,91.41
2022-08-03T00:18:48.020Z,91.06
2022-08-03T00:19:47.912Z,91.41
2022-08-03T00:20:48.786Z,91.20
2022-08-03T00:21:49.674Z,90.70
2022-08-03T00:22:50.541Z,90.66
2022-08-03T00:23:52.962Z,90.96
2022-08-03T00:24:52.342Z,90.66
2022-08-03T00:25:53.231Z,90.66
2022-08-03T00:26:54.137Z,90.45
2022-08-03T00:27:55.037Z,90.14
2022-08-03T00:28:55.785Z,90.45
2022-08-03T00:29:59.547Z,90.55
2022-08-03T00:30:57.218Z,90.35
2022-08-03T00:32:00.206Z,90.14
2022-08-03T00:32:58.864Z,89.84
2022-08-03T00:34:03.519Z,89.74
2022-08-03T00:35:00.503Z,89.94
2022-08-03T00:36:02.268Z,89.43
2022-08-03T00:37:02.142Z,89.33
2022-08-03T00:38:03.024Z,89.33
2022-08-03T00:39:03.897Z,89.43
2022-08-03T00:40:04.790Z,89.33
2022-08-03T00:41:05.405Z,89.03
2022-08-03T00:42:06.285Z,89.13
2022-08-03T00:43:07.181Z,88.93
2022-08-03T00:44:08.079Z,88.93
2022-08-03T00:45:08.984Z,89.33
2022-08-03T00:46:09.885Z,89.43
2022-08-03T00:47:10.760Z,89.84
2022-08-03T00:48:30.139Z,90.19
2022-08-03T00:49:13.492Z,90.59
2022-08-03T00:50:13.356Z,90.90
2022-08-03T00:51:14.228Z,90.80
2022-08-03T00:52:15.109Z,90.90
2022-08-03T00:53:15.985Z,91.25
2022-08-03T00:54:16.777Z,91.25
2022-08-03T00:55:17.672Z,91.05
2022-08-03T00:56:18.551Z,91.35
2022-08-03T00:57:19.424Z,91.45
2022-08-03T00:58:20.308Z,91.75
2022-08-03T00:59:21.192Z,91.75
2022-08-03T01:00:22.856Z,91.96
2022-08-03T01:01:22.776Z,92.47
2022-08-03T01:02:23.649Z,92.57
2022-08-03T01:03:24.537Z,93.02
2022-08-03T01:04:25.431Z,92.71
2022-08-03T01:05:26.347Z,92.91
2022-08-03T01:06:27.233Z,93.32
2022-08-03T01:07:28.112Z,92.82
2022-08-03T01:08:29.004Z,93.43
2022-08-03T01:09:29.867Z,93.32
2022-08-03T01:10:31.010Z,92.61
2022-08-03T01:11:31.431Z,92.61
2022-08-03T01:12:32.312Z,92.71
2022-08-03T01:14:01.391Z,92.51
2022-08-03T01:14:34.965Z,92.21
2022-08-03T01:15:34.846Z,92.30
2022-08-03T01:16:37.056Z,92.21
2022-08-03T01:17:36.552Z,92.00
2022-08-03T01:18:37.434Z,92.30
2022-08-03T01:19:38.319Z,92.00
2022-08-03T01:20:39.211Z,91.80
2022-08-03T01:21:40.084Z,91.69
2022-08-03T01:22:40.973Z,91.39
2022-08-03T01:23:41.851Z,91.19
2022-08-03T01:24:42.746Z,91.09
2022-08-03T01:25:43.647Z,91.09
2022-08-03T01:26:44.529Z,91.29
2022-08-03T01:27:45.409Z,91.39
2022-08-03T01:28:46.283Z,91.39
2022-08-03T01:29:47.167Z,91.69
2022-08-03T01:30:48.047Z,91.60
2022-08-03T01:32:58.042Z,91.19
2022-08-03T01:32:58.207Z,91.49
2022-08-03T01:33:51.471Z,90.99
2022-08-03T01:34:51.344Z,91.39
2022-08-03T01:35:52.243Z,91.29
2022-08-03T01:36:53.114Z,91.90
2022-08-03T01:37:53.996Z,91.69
2022-08-03T01:38:54.882Z,92.25
2022-08-03T01:39:55.763Z,91.84
2022-08-03T01:40:56.747Z,92.25
2022-08-03T01:41:57.626Z,91.84
2022-08-03T01:42:58.508Z,91.74
2022-08-03T01:44:30.250Z,92.14
2022-08-03T01:45:01.160Z,92.55
2022-08-03T01:46:01.065Z,92.14
2022-08-03T01:47:01.941Z,92.45
2022-08-03T01:48:02.847Z,92.55
2022-08-03T01:49:09.236Z,92.76
2022-08-03T01:50:05.482Z,92.60
2022-08-03T01:51:05.385Z,92.70
2022-08-03T01:52:06.268Z,92.70
2022-08-03T01:53:07.139Z,92.49
2022-08-03T01:54:08.021Z,92.40
2022-08-03T01:55:08.895Z,92.49
2022-08-03T01:56:09.788Z,92.80
2022-08-03T01:57:10.671Z,92.60
2022-08-03T01:58:11.542Z,92.29
2022-08-03T01:59:12.425Z,92.29
2022-08-03T02:00:13.306Z,91.99
2022-08-03T02:01:14.219Z,92.09
2022-08-03T02:02:32.955Z,92.49
2022-08-03T02:03:16.855Z,92.19
2022-08-03T02:04:16.734Z,92.40
2022-08-03T02:05:17.607Z,93.10
2022-08-03T02:07:00.843Z,92.80
2022-08-03T02:07:20.278Z,92.90
2022-08-03T02:08:20.171Z,92.80
2022-08-03T02:09:21.064Z,92.80
2022-08-03T02:10:35.378Z,92.90
2022-08-03T02:11:23.720Z,92.70
2022-08-03T02:12:23.601Z,92.90
2022-08-03T02:13:24.474Z,93.01
2022-08-03T02:14:25.357Z,92.90
2022-08-03T02:15:26.242Z,92.80
2022-08-03T02:16:27.135Z,93.10
2022-08-03T02:17:38.710Z,93.35
2022-08-03T02:18:29.784Z,92.94
2022-08-03T02:19:35.241Z,93.25
2022-08-03T02:20:31.432Z,93.35
2022-08-03T02:21:56.448Z,93.76
2022-08-03T02:22:33.094Z,93.96
2022-08-03T02:23:32.976Z,93.96
2022-08-03T02:24:33.478Z,94.01
2022-08-03T02:25:34.362Z,94.11
2022-08-03T02:26:35.254Z,94.11
2022-08-03T02:27:38.423Z,94.01
2022-08-03T02:28:37.907Z,94.11
2022-08-03T02:29:39.103Z,94.31
2022-08-03T02:30:38.610Z,94.21
2022-08-03T02:31:39.483Z,94.21
2022-08-03T02:32:40.372Z,94.52
2022-08-03T02:33:41.263Z,94.01
2022-08-03T02:34:42.157Z,94.42
2022-08-03T02:35:43.016Z,94.31
2022-08-03T02:36:43.914Z,94.92
2022-08-03T02:37:45.025Z,94.82
2022-08-03T02:38:45.314Z,94.62
2022-08-03T02:39:46.198Z,94.42
2022-08-03T02:40:47.080Z,94.11
2022-08-03T02:41:47.976Z,94.11
2022-08-03T02:42:48.861Z,94.01
2022-08-03T02:44:06.696Z,93.40
2022-08-03T02:44:51.512Z,93.19
2022-08-03T02:45:51.394Z,93.09
2022-08-03T02:46:52.290Z,93.29
2022-08-03T02:47:54.870Z,93.50
2022-08-03T02:48:53.828Z,93.50
2022-08-03T02:49:54.724Z,92.89
2022-08-03T02:50:55.569Z,92.89
2022-08-03T02:51:56.199Z,92.58
2022-08-03T02:52:57.082Z,92.54
2022-08-03T02:53:57.960Z,92.44
2022-08-03T02:54:58.837Z,92.64
2022-08-03T02:55:59.722Z,92.64
2022-08-03T02:57:00.618Z,92.58
2022-08-03T02:58:01.822Z,92.89
2022-08-03T02:59:02.132Z,92.68
2022-08-03T03:00:03.018Z,92.58
2022-08-03T03:01:03.986Z,92.27
2022-08-03T03:02:04.843Z,92.58
2022-08-03T03:03:05.726Z,92.89
2022-08-03T03:04:06.471Z,92.79
2022-08-03T03:05:52.107Z,92.89
2022-08-03T03:06:09.050Z,92.99
2022-08-03T03:07:08.943Z,93.29
2022-08-03T03:08:17.905Z,93.29
2022-08-03T03:09:11.393Z,93.50
2022-08-03T03:10:11.276Z,93.50
2022-08-03T03:11:12.162Z,93.60
2022-08-03T03:12:13.285Z,93.60
2022-08-03T03:13:13.726Z,93.90
2022-08-03T03:14:14.611Z,94.56
2022-08-03T03:15:15.488Z,95.28
2022-08-03T03:16:16.363Z,95.17
2022-08-03T03:17:17.259Z,94.87
2022-08-03T03:18:22.278Z,94.97
2022-08-03T03:19:18.985Z,95.17
2022-08-03T03:20:29.155Z,95.48
2022-08-03T03:21:21.633Z,95.48
2022-08-03T03:22:21.528Z,95.17
2022-08-03T03:23:22.412Z,94.97
2022-08-03T03:24:23.284Z,94.87
2022-08-03T03:25:24.167Z,95.07
2022-08-03T03:26:25.052Z,95.28
2022-08-03T03:27:25.941Z,95.28
2022-08-03T03:28:26.503Z,95.07
2022-08-03T03:29:27.393Z,95.28
2022-08-03T03:30:28.270Z,95.17
2022-08-03T03:31:29.155Z,94.87
2022-08-03T03:32:30.045Z,94.35
2022-08-03T03:33:30.930Z,94.15
2022-08-03T03:34:31.756Z,93.85
2022-08-03T03:35:38.891Z,94.05
2022-08-03T03:36:34.538Z,93.95
2022-08-03T03:37:34.389Z,93.69
2022-08-03T03:38:35.220Z,93.99
2022-08-03T03:39:36.100Z,93.99
2022-08-03T03:40:36.984Z,93.79
2022-08-03T03:41:37.870Z,93.99
2022-08-03T03:42:38.764Z,94.30
2022-08-03T03:43:39.600Z,94.20
2022-08-03T03:44:40.483Z,94.20
2022-08-03T03:45:41.367Z,95.01
2022-08-03T03:46:42.198Z,95.32
2022-08-03T03:47:43.034Z,95.83
2022-08-03T03:48:43.870Z,95.62
2022-08-03T03:49:44.697Z,95.52
2022-08-03T03:50:45.518Z,96.14
2022-08-03T03:51:46.364Z,96.03
2022-08-03T03:52:47.211Z,95.73
2022-08-03T03:53:48.036Z,95.62
2022-08-03T03:54:48.863Z,95.83
2022-08-03T03:55:59.333Z,96.14
2022-08-03T03:56:51.407Z,95.93
2022-08-03T03:57:51.247Z,95.52
2022-08-03T03:58:52.073Z,95.73
2022-08-03T03:59:52.921Z,96.03
2022-08-03T04:00:53.979Z,95.73
2022-08-03T04:01:59.307Z,95.62
2022-08-03T04:02:56.113Z,95.93
2022-08-03T04:03:55.937Z,95.73
2022-08-03T04:04:56.759Z,95.73
2022-08-03T04:05:57.599Z,95.73
2022-08-03T04:06:58.431Z,95.52
2022-08-03T04:07:59.268Z,95.83
2022-08-03T04:09:00.085Z,95.93
2022-08-03T04:10:00.954Z,95.83
2022-08-03T04:11:02.627Z,95.67
2022-08-03T04:12:02.454Z,95.47
2022-08-03T04:13:03.294Z,95.42
2022-08-03T04:14:04.123Z,95.52
2022-08-03T04:15:04.945Z,95.42
2022-08-03T04:16:05.773Z,95.16
2022-08-03T04:17:06.595Z,95.06
2022-08-03T04:18:07.432Z,94.65
2022-08-03T04:19:08.263Z,94.45
2022-08-03T04:20:09.091Z,94.45
2022-08-03T04:21:09.920Z,94.34
2022-08-03T04:22:10.785Z,94.45
2022-08-03T04:23:12.840Z,94.65
2022-08-03T04:24:12.485Z,94.75
2022-08-03T04:25:13.303Z,94.65
2022-08-03T04:26:14.131Z,94.65
2022-08-03T04:27:14.964Z,94.75
2022-08-03T04:28:29.452Z,94.95
2022-08-03T04:29:17.513Z,94.75
2022-08-03T04:30:17.342Z,94.95
2022-08-03T04:31:18.170Z,95.26
2022-08-03T04:32:19.232Z,95.77
2022-08-03T04:33:19.578Z,96.18
2022-08-03T04:34:20.407Z,96.28
2022-08-03T04:35:21.237Z,96.18
2022-08-03T04:36:22.950Z,96.18
2022-08-03T04:37:22.775Z,96.38
2022-08-03T04:38:23.623Z,96.59
2022-08-03T04:39:24.450Z,96.38
2022-08-03T04:40:25.278Z,96.28
2022-08-03T04:41:26.060Z,96.38
2022-08-03T04:42:26.887Z,96.59
2022-08-03T04:43:27.715Z,96.69
2022-08-03T04:44:28.825Z,96.48
2022-08-03T04:45:29.194Z,97.00
2022-08-03T04:46:30.023Z,97.00
2022-08-03T04:47:30.840Z,97.40
2022-08-03T04:48:31.682Z,97.61
2022-08-03T04:49:32.629Z,98.11
2022-08-03T04:50:33.438Z,97.91
2022-08-03T04:51:34.266Z,97.50
2022-08-03T04:52:35.095Z,97.40
2022-08-03T04:53:35.738Z,97.09
2022-08-03T04:54:36.565Z,96.48
2022-08-03T04:55:37.407Z,96.08
2022-08-03T04:56:38.222Z,95.97
2022-08-03T04:57:39.046Z,95.67
2022-08-03T04:58:39.880Z,95.77
2022-08-03T04:59:40.937Z,95.87
2022-08-03T05:00:41.259Z,95.57
2022-08-03T05:01:42.233Z,95.77
2022-08-03T05:02:43.049Z,95.87
2022-08-03T05:03:43.874Z,96.38
2022-08-03T05:04:44.704Z,96.18
2022-08-03T05:05:50.275Z,96.08
2022-08-03T05:06:48.252Z,95.97
2022-08-03T05:07:46.757Z,95.97
2022-08-03T05:08:48.896Z,96.08
2022-08-03T05:09:52.229Z,96.59
2022-08-03T05:10:48.693Z,96.89
2022-08-03T05:11:49.512Z,96.89
2022-08-03T05:12:50.340Z,97.20
2022-08-03T05:13:51.170Z,97.71
2022-08-03T05:14:52.003Z,97.71
2022-08-03T05:15:52.828Z,97.20
2022-08-03T05:16:53.651Z,97.09
2022-08-03T05:17:54.472Z,96.69
2022-08-03T05:18:55.310Z,97.20
2022-08-03T05:19:56.128Z,97.00
2022-08-03T05:20:56.957Z,97.00
2022-08-03T05:21:57.777Z,97.40
2022-08-03T05:22:58.607Z,97.61
2022-08-03T05:23:59.444Z,97.40
2022-08-03T05:25:00.296Z,97.81
2022-08-03T05:26:01.103Z,98.18
2022-08-03T05:27:01.931Z,98.27
2022-08-03T05:28:02.761Z,97.77
2022-08-03T05:29:03.599Z,97.56
2022-08-03T05:30:30.993Z,97.05
2022-08-03T05:31:06.134Z,97.05
2022-08-03T05:32:08.283Z,96.75
2022-08-03T05:33:06.761Z,96.75
2022-08-03T05:34:07.591Z,96.84
2022-08-03T05:35:56.096Z,96.64
2022-08-03T05:36:10.135Z,96.64
2022-08-03T05:37:09.961Z,97.16
2022-08-03T05:38:10.784Z,97.56
2022-08-03T05:39:11.619Z,97.56
2022-08-03T05:40:12.442Z,97.46
2022-08-03T05:41:22.259Z,98.18
2022-08-03T05:42:15.236Z,98.23
2022-08-03T05:43:14.604Z,98.02
2022-08-03T05:44:15.432Z,98.33
2022-08-03T05:45:16.264Z,98.64
2022-08-03T05:46:17.094Z,98.23
2022-08-03T05:47:17.922Z,98.23
2022-08-03T05:48:18.720Z,98.13
2022-08-03T05:49:19.611Z,98.69
2022-08-03T05:50:20.408Z,98.69
2022-08-03T05:51:21.237Z,98.69
2022-08-03T05:52:22.196Z,99.16
2022-08-03T05:53:22.666Z,99.16
2022-08-03T05:54:23.505Z,98.75
2022-08-03T05:55:25.220Z,98.54
2022-08-03T05:56:25.049Z,98.30
2022-08-03T05:57:25.869Z,98.39
2022-08-03T05:58:26.697Z,98.70
2022-08-03T05:59:37.898Z,99.31
2022-08-03T06:00:28.983Z,98.96
2022-08-03T06:01:28.852Z,98.05
2022-08-03T06:02:29.629Z,97.13
2022-08-03T06:03:30.449Z,96.42
2022-08-03T06:04:31.310Z,96.17
2022-08-03T06:05:32.132Z,95.86
2022-08-03T06:06:32.961Z,95.76
2022-08-03T06:07:33.790Z,95.72
2022-08-03T06:08:34.613Z,95.51
2022-08-03T06:10:35.525Z,95.51
2022-08-03T06:10:38.345Z,95.01
2022-08-03T06:11:36.785Z,94.90
2022-08-03T06:12:37.609Z,94.56
2022-08-03T06:13:38.429Z,94.25
2022-08-03T06:14:39.266Z,93.54
2022-08-03T06:15:40.087Z,93.54
2022-08-03T06:16:40.921Z,93.09
2022-08-03T06:17:41.752Z,92.68
2022-08-03T06:18:42.604Z,92.58
2022-08-03T06:19:43.445Z,92.89
2022-08-03T06:20:44.281Z,92.48
2022-08-03T06:21:45.096Z,92.64
2022-08-03T06:22:51.006Z,92.94
2022-08-03T06:23:54.211Z,92.33
2022-08-03T06:24:53.796Z,92.33
2022-08-03T06:25:49.092Z,92.24
2022-08-03T06:26:48.918Z,92.33
2022-08-03T06:27:49.739Z,91.32
2022-08-03T06:28:52.482Z,91.17
2022-08-03T06:29:51.127Z,91.08
2022-08-03T06:30:51.969Z,90.97
2022-08-03T06:31:52.789Z,91.17
2022-08-03T06:32:53.626Z,90.97
2022-08-03T06:34:32.917Z,90.62
2022-08-03T06:34:56.177Z,90.32
2022-08-03T06:35:55.997Z,89.81
2022-08-03T06:37:01.678Z,89.92
2022-08-03T06:37:58.537Z,90.02
2022-08-03T06:38:58.155Z,89.47
2022-08-03T06:39:58.977Z,89.47
2022-08-03T06:40:59.809Z,89.17
2022-08-03T06:42:00.650Z,88.86
2022-08-03T06:43:01.465Z,89.43
2022-08-03T06:44:02.945Z,89.02
2022-08-03T06:45:03.119Z,87.40
2022-08-03T06:46:03.938Z,87.60
2022-08-03T06:47:04.766Z,88.51
2022-08-03T06:48:05.584Z,87.66
2022-08-03T06:49:06.513Z,88.68
2022-08-03T06:50:16.278Z,88.27
2022-08-03T06:51:09.017Z,88.48
2022-08-03T06:52:08.834Z,88.07
2022-08-03T06:53:09.664Z,88.48
2022-08-03T06:54:11.396Z,87.52
2022-08-03T06:55:11.225Z,87.82
2022-08-03T06:56:12.053Z,88.43
2022-08-03T06:57:12.881Z,87.62
2022-08-03T06:58:13.711Z,88.33
2022-08-03T07:00:09.848Z,88.53
2022-08-03T07:00:16.271Z,86.51
2022-08-03T07:01:18.498Z,86.87
2022-08-03T07:02:19.391Z,86.47
2022-08-03T07:03:17.424Z,86.57
2022-08-03T07:04:18.269Z,85.96
2022-08-03T07:05:19.100Z,86.22
2022-08-03T07:06:19.925Z,84.91
2022-08-03T07:07:20.835Z,84.71
2022-08-03T07:08:33.840Z,85.22
2022-08-03T07:09:23.318Z,85.88
2022-08-03T07:10:23.150Z,85.38
2022-08-03T07:11:23.988Z,85.68
2022-08-03T07:12:24.817Z,86.29
2022-08-03T07:13:25.644Z,86.90
2022-08-03T07:14:26.495Z,85.74
2022-08-03T07:15:54.450Z,84.43
2022-08-03T07:16:29.045Z,84.43
2022-08-03T07:17:28.867Z,84.93
2022-08-03T07:18:30.230Z,84.59
2022-08-03T07:19:30.507Z,85.36
2022-08-03T07:20:32.694Z,85.16
2022-08-03T07:21:32.013Z,84.41
2022-08-03T07:22:32.837Z,82.35
2022-08-03T07:23:33.663Z,82.21
2022-08-03T07:24:34.503Z,82.38
2022-08-03T07:25:35.332Z,79.62
2022-08-03T07:26:35.993Z,78.74
2022-08-03T07:27:36.766Z,78.10
2022-08-03T07:28:37.584Z,77.86
2022-08-03T07:29:38.421Z,74.41
2022-08-03T07:30:39.252Z,72.74
2022-08-03T07:31:40.083Z,72.09
2022-08-03T07:32:49.778Z,72.66
2022-08-03T07:33:42.627Z,70.73
2022-08-03T07:34:42.456Z,71.03
2022-08-03T07:35:43.283Z,71.19
2022-08-03T07:36:44.118Z,71.76
2022-08-03T07:37:46.161Z,71.53
2022-08-03T07:38:46.659Z,69.19
2022-08-03T07:39:46.496Z,66.76
2022-08-03T07:40:47.317Z,66.76
2022-08-03T07:41:48.155Z,66.73
2022-08-03T07:42:52.140Z,65.50
2022-08-03T07:43:49.794Z,65.67
2022-08-03T07:44:50.623Z,66.96
2022-08-03T07:45:51.451Z,66.13
2022-08-03T07:46:52.272Z,65.31
2022-08-03T07:47:53.811Z,66.50
2022-08-03T07:48:53.851Z,65.67
2022-08-03T07:49:54.644Z,63.78
2022-08-03T07:50:55.463Z,64.04
2022-08-03T07:51:56.292Z,63.35
2022-08-03T07:52:57.111Z,62.23
2022-08-03T07:53:57.939Z,61.03
2022-08-03T07:54:58.769Z,59.94
2022-08-03T07:55:59.597Z,61.50
2022-08-03T07:57:00.100Z,61.60
2022-08-03T07:58:00.928Z,61.67
2022-08-03T07:59:01.758Z,60.87
2022-08-03T08:00:02.909Z,60.55
2022-08-03T08:01:03.454Z,57.76
2022-08-03T08:02:04.264Z,56.47
2022-08-03T08:03:05.082Z,57.93
2022-08-03T08:04:05.916Z,57.53
2022-08-03T08:05:06.748Z,58.73
2022-08-03T08:06:07.578Z,58.33
2022-08-03T08:07:08.394Z,56.21
2022-08-03T08:08:08.903Z,57.81
2022-08-03T08:09:09.729Z,58.07
2022-08-03T08:10:10.569Z,56.68
2022-08-03T08:11:11.386Z,57.35
2022-08-03T08:12:15.748Z,57.06
2022-08-03T08:13:12.887Z,55.66
2022-08-03T08:14:13.714Z,56.09
2022-08-03T08:15:14.553Z,56.68
2022-08-03T08:16:15.382Z,57.98
2022-08-03T08:17:16.212Z,58.10
2022-08-03T08:18:17.043Z,58.20
2022-08-03T08:19:17.870Z,58.50
2022-08-03T08:20:27.649Z,58.90
2022-08-03T08:21:20.492Z,58.20
2022-08-03T08:22:29.947Z,58.30
2022-08-03T08:23:42.670Z,58.40
2022-08-03T08:24:22.699Z,57.31
2022-08-03T08:25:22.450Z,57.81
2022-08-03T08:26:23.277Z,58.50
2022-08-03T08:27:24.096Z,58.00
2022-08-03T08:28:32.682Z,57.90
2022-08-03T08:29:26.641Z,58.60
2022-08-03T08:30:26.477Z,57.21
2022-08-03T08:31:27.014Z,56.71
2022-08-03T08:32:27.836Z,57.60
2022-08-03T08:33:37.620Z,58.20
2022-08-03T08:34:30.416Z,58.50
2022-08-03T08:35:30.179Z,58.20
2022-08-03T08:36:31.056Z,57.51
2022-08-03T08:37:31.844Z,55.72
2022-08-03T08:38:32.670Z,57.11
2022-08-03T08:39:33.490Z,57.21
2022-08-03T08:40:34.330Z,56.91
2022-08-03T08:41:35.157Z,57.01
2022-08-03T08:42:36.009Z,57.60
2022-08-03T08:43:36.816Z,57.51
2022-08-03T08:44:37.646Z,57.11
2022-08-03T08:45:38.475Z,57.81
2022-08-03T08:46:39.303Z,57.31
2022-08-03T08:47:50.933Z,56.78
2022-08-03T08:48:41.842Z,57.68
2022-08-03T08:49:53.426Z,57.38
2022-08-03T08:50:43.389Z,57.68
2022-08-03T08:51:50.953Z,57.28
2022-08-03T08:52:44.923Z,56.68
2022-08-03T08:53:44.751Z,57.18
2022-08-03T08:54:45.580Z,57.08
2022-08-03T08:55:58.390Z,57.18
2022-08-03T08:56:48.136Z,57.18
2022-08-03T08:57:47.953Z,57.38
2022-08-03T08:58:48.782Z,56.98
2022-08-03T08:59:51.587Z,56.78
2022-08-03T09:00:51.388Z,55.29
2022-08-03T09:01:51.191Z,55.49
2022-08-03T09:02:52.013Z,55.89
2022-08-03T09:03:52.835Z,55.69
2022-08-03T09:04:53.670Z,56.19
2022-08-03T09:05:56.056Z,56.09
2022-08-03T09:07:17.992Z,55.99
2022-08-03T09:07:56.839Z,55.40
2022-08-03T09:08:56.687Z,56.49
2022-08-03T09:10:12.312Z,55.00
2022-08-03T09:10:59.247Z,55.49
2022-08-03T09:12:20.025Z,53.91
2022-08-03T09:13:00.772Z,53.91
2022-08-03T09:14:00.592Z,52.51
2022-08-03T09:15:16.482Z,53.61
2022-08-03T09:16:03.157Z,53.61
2022-08-03T09:17:02.988Z,54.80
2022-08-03T09:18:03.807Z,55.49
2022-08-03T09:19:04.635Z,54.60
2022-08-03T09:20:05.486Z,55.40
2022-08-03T09:21:24.201Z,53.61
2022-08-03T09:22:08.027Z,54.30
2022-08-03T09:23:24.994Z,53.21
2022-08-03T09:24:16.691Z,54.00
2022-08-03T09:25:23.754Z,53.80
2022-08-03T09:26:11.034Z,54.21
2022-08-03T09:27:10.864Z,53.70
2022-08-03T09:28:11.687Z,53.21
2022-08-03T09:29:15.262Z,52.31
2022-08-03T09:30:33.901Z,52.81
2022-08-03T09:31:15.020Z,52.31
2022-08-03T09:32:14.992Z,51.82
2022-08-03T09:33:15.748Z,52.61
2022-08-03T09:34:16.750Z,51.42
2022-08-03T09:35:27.890Z,51.62
2022-08-03T09:36:18.834Z,51.52
2022-08-03T09:37:19.049Z,51.32
2022-08-03T09:38:19.492Z,51.12
2022-08-03T09:39:40.923Z,51.60
2022-08-03T09:40:22.062Z,51.70
2022-08-03T09:41:21.892Z,51.70
2022-08-03T09:42:23.992Z,53.48
2022-08-03T09:43:23.396Z,54.38
2022-08-03T09:44:25.986Z,52.98
2022-08-03T09:45:24.982Z,51.30
2022-08-03T09:46:25.811Z,51.79
2022-08-03T09:47:28.289Z,52.86
2022-08-03T09:48:27.223Z,51.97
2022-08-03T09:49:28.120Z,51.37
2022-08-03T09:50:28.918Z,51.67
2022-08-03T09:51:33.179Z,51.87
2022-08-03T09:52:49.818Z,50.18
2022-08-03T09:53:32.176Z,48.80
2022-08-03T09:54:31.995Z,50.78
2022-08-03T09:56:35.605Z,50.98
2022-08-03T09:56:37.147Z,50.88
2022-08-03T09:57:34.492Z,52.37
2022-08-03T09:58:35.320Z,51.87
2022-08-03T09:59:36.150Z,51.77
2022-08-03T10:00:36.918Z,51.77
2022-08-03T10:01:37.754Z,51.57
2022-08-03T10:02:38.530Z,51.67
2022-08-03T10:04:03.138Z,51.77
2022-08-03T10:04:41.074Z,52.86
2022-08-03T10:05:40.919Z,52.96
2022-08-03T10:06:41.749Z,52.96
2022-08-03T10:07:46.191Z,53.03
2022-08-03T10:08:43.104Z,53.03
2022-08-03T10:09:43.924Z,52.94
2022-08-03T10:10:44.775Z,53.63
2022-08-03T10:11:45.609Z,54.13
2022-08-03T10:12:46.439Z,53.92
2022-08-03T10:13:47.254Z,55.11
2022-08-03T10:14:48.087Z,54.82
2022-08-03T10:16:23.717Z,54.92
2022-08-03T10:16:50.627Z,54.92
2022-08-03T10:17:50.447Z,56.11
2022-08-03T10:18:51.275Z,54.22
2022-08-03T10:19:52.094Z,53.73
2022-08-03T10:20:53.047Z,54.02
2022-08-03T10:21:53.444Z,54.22
2022-08-03T10:22:54.272Z,55.41
2022-08-03T10:23:55.106Z,54.75
2022-08-03T10:24:55.931Z,54.22
2022-08-03T10:25:56.764Z,54.22
2022-08-03T10:26:57.597Z,54.52
2022-08-03T10:27:58.411Z,54.25
2022-08-03T10:28:59.241Z,53.26
2022-08-03T10:30:00.063Z,55.04
2022-08-03T10:31:00.898Z,54.55
2022-08-03T10:32:01.719Z,53.96
2022-08-03T10:33:02.546Z,54.45
2022-08-03T10:34:03.375Z,55.02
2022-08-03T10:35:19.645Z,54.52
2022-08-03T10:36:05.935Z,54.72
2022-08-03T10:37:05.757Z,54.13
2022-08-03T10:38:06.577Z,54.52
2022-08-03T10:39:16.024Z,54.52
2022-08-03T10:40:09.122Z,54.82
2022-08-03T10:41:08.960Z,54.42
2022-08-03T10:42:14.612Z,54.72
2022-08-03T10:43:11.495Z,54.42
2022-08-03T10:44:11.330Z,54.92
2022-08-03T10:45:12.153Z,54.22
2022-08-03T10:46:12.992Z,55.02
2022-08-03T10:47:13.932Z,55.21
2022-08-03T10:48:14.721Z,53.83
2022-08-03T10:49:15.568Z,53.92
2022-08-03T10:50:16.370Z,53.23
2022-08-03T10:51:17.210Z,53.73
2022-08-03T10:52:31.960Z,53.03
2022-08-03T10:53:20.134Z,53.23
2022-08-03T10:54:19.423Z,53.03
2022-08-03T10:55:20.014Z,53.33
2022-08-03T10:56:35.375Z,53.63
2022-08-03T10:57:22.343Z,54.92
2022-08-03T10:58:30.533Z,53.03
2022-08-03T10:59:28.024Z,53.13
2022-08-03T11:00:23.613Z,52.84
2022-08-03T11:01:24.472Z,52.54
2022-08-03T11:02:26.126Z,53.03
2022-08-03T11:03:25.953Z,53.43
2022-08-03T11:04:26.776Z,53.43
2022-08-03T11:05:27.602Z,53.33
2022-08-03T11:06:28.439Z,52.54
2022-08-03T11:07:30.153Z,52.64
2022-08-03T11:08:29.975Z,52.84
2022-08-03T11:09:30.811Z,52.64
2022-08-03T11:10:31.642Z,52.94
2022-08-03T11:11:32.476Z,52.94
2022-08-03T11:12:33.307Z,52.94
2022-08-03T11:13:34.240Z,52.44
2022-08-03T11:14:34.997Z,52.73
2022-08-03T11:15:35.825Z,52.73
2022-08-03T11:16:36.660Z,52.84
2022-08-03T11:17:46.807Z,52.84
2022-08-03T11:18:39.205Z,53.03
2022-08-03T11:19:39.034Z,52.73
2022-08-03T11:20:40.749Z,53.23
2022-08-03T11:21:40.587Z,53.43
2022-08-03T11:22:41.407Z,53.33
2022-08-03T11:24:03.048Z,53.03
2022-08-03T11:24:43.951Z,53.01
2022-08-03T11:25:53.489Z,52.71
2022-08-03T11:26:45.511Z,52.41
2022-08-03T11:27:45.341Z,53.11
2022-08-03T11:28:46.162Z,53.70
2022-08-03T11:29:46.990Z,53.60
2022-08-03T11:30:47.820Z,52.81
2022-08-03T11:31:50.700Z,52.61
2022-08-03T11:32:49.325Z,53.70
2022-08-03T11:33:50.153Z,53.41
2022-08-03T11:34:50.976Z,53.20
2022-08-03T11:35:51.802Z,53.01
2022-08-03T11:36:52.643Z,52.51
2022-08-03T11:38:02.446Z,53.41
2022-08-03T11:38:55.186Z,52.91
2022-08-03T11:39:55.014Z,52.71
2022-08-03T11:40:55.843Z,52.91
2022-08-03T11:41:56.681Z,52.98
2022-08-03T11:42:57.513Z,52.81
2022-08-03T11:43:58.341Z,53.41
2022-08-03T11:44:58.912Z,51.79
2022-08-03T11:45:59.742Z,52.59
2022-08-03T11:47:00.572Z,52.19
2022-08-03T11:48:01.400Z,51.70
2022-08-03T11:49:05.352Z,52.88
2022-08-03T11:50:03.937Z,52.69
2022-08-03T11:51:03.757Z,53.18
2022-08-03T11:52:04.594Z,52.69
2022-08-03T11:53:05.414Z,52.69
2022-08-03T11:54:06.243Z,53.48
2022-08-03T11:55:07.063Z,52.88
2022-08-03T11:56:12.916Z,51.89
2022-08-03T11:57:09.614Z,51.60
2022-08-03T11:59:02.706Z,51.47
2022-08-03T11:59:20.021Z,51.37
2022-08-03T12:00:11.872Z,51.67
2022-08-03T12:01:11.702Z,51.28
2022-08-03T12:02:12.532Z,50.98
2022-08-03T12:03:13.456Z,50.90
2022-08-03T12:04:14.219Z,51.00
2022-08-03T12:05:15.045Z,51.20
2022-08-03T12:06:15.868Z,50.51
2022-08-03T12:07:24.482Z,51.00
2022-08-03T12:08:18.452Z,51.60
2022-08-03T12:09:18.275Z,51.79
2022-08-03T12:10:19.148Z,51.47
2022-08-03T12:11:19.973Z,50.51
2022-08-03T12:12:20.828Z,51.10
2022-08-03T12:14:44.636Z,50.81
2022-08-03T12:14:48.492Z,51.60
2022-08-03T12:15:23.972Z,51.47
2022-08-03T12:16:23.800Z,52.76
2022-08-03T12:17:24.639Z,52.26
2022-08-03T12:18:25.466Z,52.96
2022-08-03T12:19:26.286Z,51.77
2022-08-03T12:20:34.442Z,52.46
2022-08-03T12:21:28.833Z,50.88
2022-08-03T12:22:28.671Z,51.18
2022-08-03T12:23:29.498Z,50.68
2022-08-03T12:24:30.331Z,51.47
2022-08-03T12:25:39.539Z,51.18
2022-08-03T12:26:32.868Z,51.94
2022-08-03T12:27:32.706Z,51.65
2022-08-03T12:28:37.750Z,51.35
2022-08-03T12:29:34.344Z,51.75
2022-08-03T12:30:35.172Z,51.94
2022-08-03T12:31:35.992Z,51.94
2022-08-03T12:32:36.831Z,51.05
2022-08-03T12:33:37.661Z,51.65
2022-08-03T12:34:40.039Z,51.94
2022-08-03T12:35:39.094Z,51.05
2022-08-03T12:36:40.805Z,50.56
2022-08-03T12:37:40.651Z,51.54
2022-08-03T12:38:41.479Z,50.36
2022-08-03T12:40:01.378Z,51.54
2022-08-03T12:40:44.025Z,51.15
2022-08-03T12:41:43.844Z,51.05
2022-08-03T12:42:44.683Z,51.25
2022-08-03T12:43:45.516Z,51.42
2022-08-03T12:44:46.343Z,51.94
2022-08-03T12:45:47.333Z,51.62
2022-08-03T12:46:48.319Z,51.32
2022-08-03T12:47:49.117Z,51.13
2022-08-03T12:48:49.943Z,50.93
2022-08-03T12:49:50.765Z,51.72
2022-08-03T12:50:53.556Z,52.01
2022-08-03T12:51:52.575Z,51.32
2022-08-03T12:52:53.416Z,51.72
2022-08-03T12:53:54.248Z,51.32
2022-08-03T12:54:55.076Z,51.13
2022-08-03T12:56:05.099Z,51.92
2022-08-03T12:56:57.624Z,50.90
2022-08-03T12:57:57.461Z,51.30
2022-08-03T12:58:58.290Z,50.71
2022-08-03T12:59:59.123Z,50.90
2022-08-03T13:00:59.949Z,51.30
2022-08-03T13:02:01.072Z,50.71
2022-08-03T13:03:26.484Z,51.00